sensor_id;sensor_type;location;lat;lon;timestamp;P1;durP1;ratioP1;P2;durP2;ratioP2
12519;SDS011;6325;49.540;8.364;2022-07-12T00:01:52;0.70;;;0.70;;
12519;SDS011;6325;49.540;8.364;2022-07-12T00:04:19;0.70;;;0.70;;
12519;SDS011;6325;49.540;8.364;2022-07-12T00:06:46;0.80;;;0.80;;
12519;SDS011;6325;49.540;8.364;2022-07-12T00:09:13;0.70;;;0.70;;
12519;SDS011;6325;49.540;8.364;2022-07-12T00:11:39;0.80;;;0.80;;
12519;SDS011;6325;49.540;8.364;2022-07-12T00:14:07;0.70;;;0.70;;
12519;SDS011;6325;49.540;8.364;2022-07-12T00:16:36;0.90;;;0.90;;
12519;SDS011;6325;49.540;8.364;2022-07-12T00:19:03;0.70;;;0.70;;
12519;SDS011;6325;49.540;8.364;2022-07-12T00:21:30;0.80;;;0.80;;
12519;SDS011;6325;49.540;8.364;2022-07-12T00:23:57;0.73;;;0.73;;
12519;SDS011;6325;49.540;8.364;2022-07-12T00:26:23;0.80;;;0.80;;
12519;SDS011;6325;49.540;8.364;2022-07-12T00:28:51;0.70;;;0.70;;
12519;SDS011;6325;49.540;8.364;2022-07-12T00:31:17;0.80;;;0.80;;
12519;SDS011;6325;49.540;8.364;2022-07-12T00:33:46;0.70;;;0.70;;
12519;SDS011;6325;49.540;8.364;2022-07-12T00:36:15;0.80;;;0.80;;
12519;SDS011;6325;49.540;8.364;2022-07-12T00:38:41;0.70;;;0.70;;
12519;SDS011;6325;49.540;8.364;2022-07-12T00:41:08;0.80;;;0.80;;
12519;SDS011;6325;49.540;8.364;2022-07-12T00:43:35;0.70;;;0.70;;
12519;SDS011;6325;49.540;8.364;2022-07-12T00:46:02;0.95;;;0.95;;
12519;SDS011;6325;49.540;8.364;2022-07-12T00:48:30;0.80;;;0.80;;
12519;SDS011;6325;49.540;8.364;2022-07-12T00:51:00;0.80;;;0.80;;
12519;SDS011;6325;49.540;8.364;2022-07-12T00:53:27;0.80;;;0.80;;
12519;SDS011;6325;49.540;8.364;2022-07-12T00:55:54;1.00;;;1.00;;
12519;SDS011;6325;49.540;8.364;2022-07-12T00:58:22;0.90;;;0.90;;
12519;SDS011;6325;49.540;8.364;2022-07-12T01:00:52;0.90;;;0.90;;
12519;SDS011;6325;49.540;8.364;2022-07-12T01:03:21;0.70;;;0.70;;
12519;SDS011;6325;49.540;8.364;2022-07-12T01:05:48;0.70;;;0.70;;
12519;SDS011;6325;49.540;8.364;2022-07-12T01:08:17;0.80;;;0.80;;
12519;SDS011;6325;49.540;8.364;2022-07-12T01:10:44;0.90;;;0.90;;
12519;SDS011;6325;49.540;8.364;2022-07-12T01:13:13;0.80;;;0.80;;
12519;SDS011;6325;49.540;8.364;2022-07-12T01:15:40;0.80;;;0.80;;
12519;SDS011;6325;49.540;8.364;2022-07-12T01:18:08;0.77;;;0.77;;
12519;SDS011;6325;49.540;8.364;2022-07-12T01:20:36;0.70;;;0.70;;
12519;SDS011;6325;49.540;8.364;2022-07-12T01:23:04;0.90;;;0.90;;
12519;SDS011;6325;49.540;8.364;2022-07-12T01:25:32;0.80;;;0.80;;
12519;SDS011;6325;49.540;8.364;2022-07-12T01:27:58;0.80;;;0.80;;
12519;SDS011;6325;49.540;8.364;2022-07-12T01:30:26;0.80;;;0.80;;
12519;SDS011;6325;49.540;8.364;2022-07-12T01:32:53;0.90;;;0.90;;
12519;SDS011;6325;49.540;8.364;2022-07-12T01:35:20;0.80;;;0.80;;
12519;SDS011;6325;49.540;8.364;2022-07-12T01:37:48;0.70;;;0.70;;
12519;SDS011;6325;49.540;8.364;2022-07-12T01:40:16;0.70;;;0.70;;
12519;SDS011;6325;49.540;8.364;2022-07-12T01:42:43;0.80;;;0.80;;
12519;SDS011;6325;49.540;8.364;2022-07-12T01:45:11;0.80;;;0.80;;
12519;SDS011;6325;49.540;8.364;2022-07-12T01:47:38;0.77;;;0.77;;
12519;SDS011;6325;49.540;8.364;2022-07-12T01:50:05;0.80;;;0.80;;
12519;SDS011;6325;49.540;8.364;2022-07-12T01:52:34;0.80;;;0.80;;
12519;SDS011;6325;49.540;8.364;2022-07-12T01:55:02;0.80;;;0.80;;
12519;SDS011;6325;49.540;8.364;2022-07-12T01:57:30;0.85;;;0.85;;
12519;SDS011;6325;49.540;8.364;2022-07-12T01:59:58;0.70;;;0.70;;
12519;SDS011;6325;49.540;8.364;2022-07-12T02:02:26;0.80;;;0.80;;
12519;SDS011;6325;49.540;8.364;2022-07-12T02:04:55;0.70;;;0.70;;
12519;SDS011;6325;49.540;8.364;2022-07-12T02:07:23;0.70;;;0.70;;
12519;SDS011;6325;49.540;8.364;2022-07-12T02:09:50;0.80;;;0.80;;
12519;SDS011;6325;49.540;8.364;2022-07-12T02:12:17;0.90;;;0.90;;
12519;SDS011;6325;49.540;8.364;2022-07-12T02:14:45;0.80;;;0.80;;
12519;SDS011;6325;49.540;8.364;2022-07-12T02:17:12;0.80;;;0.80;;
12519;SDS011;6325;49.540;8.364;2022-07-12T02:19:39;0.65;;;0.65;;
12519;SDS011;6325;49.540;8.364;2022-07-12T02:22:07;0.70;;;0.70;;
12519;SDS011;6325;49.540;8.364;2022-07-12T02:24:34;0.70;;;0.70;;
12519;SDS011;6325;49.540;8.364;2022-07-12T02:27:01;0.70;;;0.70;;
12519;SDS011;6325;49.540;8.364;2022-07-12T02:29:28;0.73;;;0.73;;
12519;SDS011;6325;49.540;8.364;2022-07-12T02:31:57;0.70;;;0.70;;
12519;SDS011;6325;49.540;8.364;2022-07-12T02:34:24;0.75;;;0.75;;
12519;SDS011;6325;49.540;8.364;2022-07-12T02:36:50;0.80;;;0.80;;
12519;SDS011;6325;49.540;8.364;2022-07-12T02:39:17;0.77;;;0.77;;
12519;SDS011;6325;49.540;8.364;2022-07-12T02:41:44;0.70;;;0.70;;
12519;SDS011;6325;49.540;8.364;2022-07-12T02:44:11;0.67;;;0.67;;
12519;SDS011;6325;49.540;8.364;2022-07-12T02:46:38;0.90;;;0.90;;
12519;SDS011;6325;49.540;8.364;2022-07-12T02:49:06;0.70;;;0.70;;
12519;SDS011;6325;49.540;8.364;2022-07-12T02:51:33;0.70;;;0.70;;
12519;SDS011;6325;49.540;8.364;2022-07-12T02:54:00;0.80;;;0.80;;
12519;SDS011;6325;49.540;8.364;2022-07-12T02:56:27;0.73;;;0.73;;
12519;SDS011;6325;49.540;8.364;2022-07-12T02:58:54;0.70;;;0.70;;
12519;SDS011;6325;49.540;8.364;2022-07-12T03:01:21;0.90;;;0.90;;
12519;SDS011;6325;49.540;8.364;2022-07-12T03:03:48;0.80;;;0.80;;
12519;SDS011;6325;49.540;8.364;2022-07-12T03:06:16;0.90;;;0.90;;
12519;SDS011;6325;49.540;8.364;2022-07-12T03:08:43;0.80;;;0.80;;
12519;SDS011;6325;49.540;8.364;2022-07-12T03:11:09;0.77;;;0.77;;
12519;SDS011;6325;49.540;8.364;2022-07-12T03:13:36;0.93;;;0.93;;
12519;SDS011;6325;49.540;8.364;2022-07-12T03:16:04;1.00;;;1.00;;
12519;SDS011;6325;49.540;8.364;2022-07-12T03:18:32;0.90;;;0.90;;
12519;SDS011;6325;49.540;8.364;2022-07-12T03:20:59;1.27;;;1.17;;
12519;SDS011;6325;49.540;8.364;2022-07-12T03:23:27;0.85;;;0.85;;
12519;SDS011;6325;49.540;8.364;2022-07-12T03:25:54;0.90;;;0.90;;
12519;SDS011;6325;49.540;8.364;2022-07-12T03:28:21;0.80;;;0.80;;
12519;SDS011;6325;49.540;8.364;2022-07-12T03:30:48;0.70;;;0.70;;
12519;SDS011;6325;49.540;8.364;2022-07-12T03:33:15;0.90;;;0.90;;
12519;SDS011;6325;49.540;8.364;2022-07-12T03:35:42;0.73;;;0.73;;
12519;SDS011;6325;49.540;8.364;2022-07-12T03:38:09;0.70;;;0.70;;
12519;SDS011;6325;49.540;8.364;2022-07-12T03:40:37;0.68;;;0.68;;
12519;SDS011;6325;49.540;8.364;2022-07-12T03:43:05;0.70;;;0.70;;
12519;SDS011;6325;49.540;8.364;2022-07-12T03:45:31;0.90;;;0.90;;
12519;SDS011;6325;49.540;8.364;2022-07-12T03:47:59;0.88;;;0.88;;
12519;SDS011;6325;49.540;8.364;2022-07-12T03:50:26;0.80;;;0.80;;
12519;SDS011;6325;49.540;8.364;2022-07-12T03:52:53;0.80;;;0.80;;
12519;SDS011;6325;49.540;8.364;2022-07-12T03:55:20;1.10;;;1.10;;
12519;SDS011;6325;49.540;8.364;2022-07-12T03:57:49;0.90;;;0.90;;
12519;SDS011;6325;49.540;8.364;2022-07-12T04:00:16;0.90;;;0.90;;
12519;SDS011;6325;49.540;8.364;2022-07-12T04:02:43;0.90;;;0.90;;
12519;SDS011;6325;49.540;8.364;2022-07-12T04:05:10;0.90;;;0.90;;
12519;SDS011;6325;49.540;8.364;2022-07-12T04:07:38;0.80;;;0.80;;
12519;SDS011;6325;49.540;8.364;2022-07-12T04:10:05;0.85;;;0.85;;
12519;SDS011;6325;49.540;8.364;2022-07-12T04:12:33;0.80;;;0.80;;
12519;SDS011;6325;49.540;8.364;2022-07-12T04:15:01;0.70;;;0.70;;
12519;SDS011;6325;49.540;8.364;2022-07-12T04:17:29;0.77;;;0.77;;
12519;SDS011;6325;49.540;8.364;2022-07-12T04:19:56;0.82;;;0.82;;
12519;SDS011;6325;49.540;8.364;2022-07-12T04:22:23;0.90;;;0.90;;
12519;SDS011;6325;49.540;8.364;2022-07-12T04:24:50;0.90;;;0.90;;
12519;SDS011;6325;49.540;8.364;2022-07-12T04:27:17;0.90;;;0.90;;
12519;SDS011;6325;49.540;8.364;2022-07-12T04:29:44;1.00;;;0.88;;
12519;SDS011;6325;49.540;8.364;2022-07-12T04:32:12;0.90;;;0.90;;
12519;SDS011;6325;49.540;8.364;2022-07-12T04:34:39;0.90;;;0.90;;
12519;SDS011;6325;49.540;8.364;2022-07-12T04:37:06;0.98;;;0.98;;
12519;SDS011;6325;49.540;8.364;2022-07-12T04:39:33;0.80;;;0.80;;
12519;SDS011;6325;49.540;8.364;2022-07-12T04:42:00;1.00;;;1.00;;
12519;SDS011;6325;49.540;8.364;2022-07-12T04:44:27;1.20;;;1.20;;
12519;SDS011;6325;49.540;8.364;2022-07-12T04:46:54;1.00;;;1.00;;
12519;SDS011;6325;49.540;8.364;2022-07-12T04:49:24;0.90;;;0.90;;
12519;SDS011;6325;49.540;8.364;2022-07-12T04:51:50;1.02;;;1.02;;
12519;SDS011;6325;49.540;8.364;2022-07-12T04:54:18;0.80;;;0.80;;
12519;SDS011;6325;49.540;8.364;2022-07-12T04:56:45;0.90;;;0.90;;
12519;SDS011;6325;49.540;8.364;2022-07-12T04:59:13;1.00;;;1.00;;
12519;SDS011;6325;49.540;8.364;2022-07-12T05:01:40;1.00;;;1.00;;
12519;SDS011;6325;49.540;8.364;2022-07-12T05:04:07;1.13;;;1.13;;
12519;SDS011;6325;49.540;8.364;2022-07-12T05:06:35;1.60;;;1.35;;
12519;SDS011;6325;49.540;8.364;2022-07-12T05:09:02;2.00;;;1.58;;
12519;SDS011;6325;49.540;8.364;2022-07-12T05:11:29;2.05;;;1.85;;
12519;SDS011;6325;49.540;8.364;2022-07-12T05:13:57;1.30;;;1.20;;
12519;SDS011;6325;49.540;8.364;2022-07-12T05:16:24;1.37;;;1.33;;
12519;SDS011;6325;49.540;8.364;2022-07-12T05:18:51;2.17;;;1.40;;
12519;SDS011;6325;49.540;8.364;2022-07-12T05:21:18;2.65;;;1.58;;
12519;SDS011;6325;49.540;8.364;2022-07-12T05:23:46;1.53;;;1.50;;
12519;SDS011;6325;49.540;8.364;2022-07-12T05:26:13;1.60;;;1.50;;
12519;SDS011;6325;49.540;8.364;2022-07-12T05:28:40;2.47;;;1.60;;
12519;SDS011;6325;49.540;8.364;2022-07-12T05:31:08;2.65;;;1.92;;
12519;SDS011;6325;49.540;8.364;2022-07-12T05:33:36;2.10;;;1.70;;
12519;SDS011;6325;49.540;8.364;2022-07-12T05:36:03;2.25;;;1.70;;
12519;SDS011;6325;49.540;8.364;2022-07-12T05:38:30;1.50;;;1.40;;
12519;SDS011;6325;49.540;8.364;2022-07-12T05:40:59;1.67;;;1.58;;
12519;SDS011;6325;49.540;8.364;2022-07-12T05:43:26;2.08;;;1.58;;
12519;SDS011;6325;49.540;8.364;2022-07-12T05:45:53;2.20;;;1.60;;
12519;SDS011;6325;49.540;8.364;2022-07-12T05:48:20;2.47;;;1.70;;
12519;SDS011;6325;49.540;8.364;2022-07-12T05:50:47;1.70;;;1.60;;
12519;SDS011;6325;49.540;8.364;2022-07-12T05:53:14;1.10;;;1.10;;
12519;SDS011;6325;49.540;8.364;2022-07-12T05:55:49;1.60;;;1.50;;
12519;SDS011;6325;49.540;8.364;2022-07-12T05:58:18;1.57;;;1.57;;
12519;SDS011;6325;49.540;8.364;2022-07-12T06:00:46;1.75;;;1.65;;
12519;SDS011;6325;49.540;8.364;2022-07-12T06:03:13;1.30;;;1.30;;
12519;SDS011;6325;49.540;8.364;2022-07-12T06:05:41;1.20;;;1.20;;
12519;SDS011;6325;49.540;8.364;2022-07-12T06:08:08;1.70;;;1.60;;
12519;SDS011;6325;49.540;8.364;2022-07-12T06:10:35;1.30;;;1.30;;
12519;SDS011;6325;49.540;8.364;2022-07-12T06:13:02;1.40;;;1.40;;
12519;SDS011;6325;49.540;8.364;2022-07-12T06:15:30;1.20;;;1.20;;
12519;SDS011;6325;49.540;8.364;2022-07-12T06:17:57;1.30;;;1.20;;
12519;SDS011;6325;49.540;8.364;2022-07-12T06:20:24;1.70;;;1.60;;
12519;SDS011;6325;49.540;8.364;2022-07-12T06:22:51;1.10;;;1.10;;
12519;SDS011;6325;49.540;8.364;2022-07-12T06:25:18;1.60;;;1.50;;
12519;SDS011;6325;49.540;8.364;2022-07-12T06:27:45;1.58;;;1.48;;
12519;SDS011;6325;49.540;8.364;2022-07-12T06:30:14;1.20;;;1.20;;
12519;SDS011;6325;49.540;8.364;2022-07-12T06:32:44;1.52;;;1.42;;
12519;SDS011;6325;49.540;8.364;2022-07-12T06:35:12;1.60;;;1.50;;
12519;SDS011;6325;49.540;8.364;2022-07-12T06:37:39;1.07;;;1.07;;
12519;SDS011;6325;49.540;8.364;2022-07-12T06:40:06;1.30;;;1.30;;
12519;SDS011;6325;49.540;8.364;2022-07-12T06:42:34;1.45;;;1.35;;
12519;SDS011;6325;49.540;8.364;2022-07-12T06:45:01;1.15;;;1.13;;
12519;SDS011;6325;49.540;8.364;2022-07-12T06:47:29;1.20;;;1.20;;
12519;SDS011;6325;49.540;8.364;2022-07-12T06:49:57;1.55;;;1.45;;
12519;SDS011;6325;49.540;8.364;2022-07-12T06:52:24;1.25;;;1.25;;
12519;SDS011;6325;49.540;8.364;2022-07-12T06:54:51;1.33;;;1.33;;
12519;SDS011;6325;49.540;8.364;2022-07-12T06:57:18;1.35;;;1.25;;
12519;SDS011;6325;49.540;8.364;2022-07-12T06:59:44;1.10;;;1.10;;
12519;SDS011;6325;49.540;8.364;2022-07-12T07:02:11;1.30;;;1.25;;
12519;SDS011;6325;49.540;8.364;2022-07-12T07:04:38;1.13;;;1.13;;
12519;SDS011;6325;49.540;8.364;2022-07-12T07:07:06;1.80;;;1.42;;
12519;SDS011;6325;49.540;8.364;2022-07-12T07:09:33;1.20;;;1.20;;
12519;SDS011;6325;49.540;8.364;2022-07-12T07:12:00;1.20;;;1.20;;
12519;SDS011;6325;49.540;8.364;2022-07-12T07:14:27;1.10;;;1.10;;
12519;SDS011;6325;49.540;8.364;2022-07-12T07:16:54;1.00;;;1.00;;
12519;SDS011;6325;49.540;8.364;2022-07-12T07:19:20;1.65;;;1.38;;
12519;SDS011;6325;49.540;8.364;2022-07-12T07:21:49;1.90;;;1.20;;
12519;SDS011;6325;49.540;8.364;2022-07-12T07:24:18;1.38;;;1.27;;
12519;SDS011;6325;49.540;8.364;2022-07-12T07:26:45;1.40;;;1.30;;
12519;SDS011;6325;49.540;8.364;2022-07-12T07:29:11;0.95;;;0.95;;
12519;SDS011;6325;49.540;8.364;2022-07-12T07:31:56;1.10;;;1.10;;
12519;SDS011;6325;49.540;8.364;2022-07-12T07:34:22;1.50;;;1.40;;
12519;SDS011;6325;49.540;8.364;2022-07-12T07:36:51;1.70;;;1.38;;
12519;SDS011;6325;49.540;8.364;2022-07-12T07:39:19;1.13;;;1.10;;
12519;SDS011;6325;49.540;8.364;2022-07-12T07:41:46;1.38;;;1.30;;
12519;SDS011;6325;49.540;8.364;2022-07-12T07:44:13;1.33;;;1.20;;
12519;SDS011;6325;49.540;8.364;2022-07-12T07:46:40;1.17;;;1.13;;
12519;SDS011;6325;49.540;8.364;2022-07-12T07:49:07;1.15;;;1.13;;
12519;SDS011;6325;49.540;8.364;2022-07-12T07:51:34;1.00;;;1.00;;
12519;SDS011;6325;49.540;8.364;2022-07-12T07:54:00;0.90;;;0.90;;
12519;SDS011;6325;49.540;8.364;2022-07-12T07:56:29;1.10;;;1.00;;
12519;SDS011;6325;49.540;8.364;2022-07-12T07:58:56;1.00;;;1.00;;
12519;SDS011;6325;49.540;8.364;2022-07-12T08:01:22;1.17;;;1.08;;
12519;SDS011;6325;49.540;8.364;2022-07-12T08:04:07;0.90;;;0.90;;
12519;SDS011;6325;49.540;8.364;2022-07-12T08:06:34;0.80;;;0.80;;
12519;SDS011;6325;49.540;8.364;2022-07-12T08:09:01;0.70;;;0.70;;
12519;SDS011;6325;49.540;8.364;2022-07-12T08:11:30;0.80;;;0.80;;
12519;SDS011;6325;49.540;8.364;2022-07-12T08:13:57;0.60;;;0.60;;
12519;SDS011;6325;49.540;8.364;2022-07-12T08:16:24;0.70;;;0.70;;
12519;SDS011;6325;49.540;8.364;2022-07-12T08:18:51;0.70;;;0.70;;
12519;SDS011;6325;49.540;8.364;2022-07-12T08:21:19;0.50;;;0.50;;
12519;SDS011;6325;49.540;8.364;2022-07-12T08:23:46;1.08;;;0.80;;
12519;SDS011;6325;49.540;8.364;2022-07-12T08:26:13;0.77;;;0.77;;
12519;SDS011;6325;49.540;8.364;2022-07-12T08:28:41;0.50;;;0.50;;
12519;SDS011;6325;49.540;8.364;2022-07-12T08:31:09;0.52;;;0.52;;
12519;SDS011;6325;49.540;8.364;2022-07-12T08:33:38;0.60;;;0.60;;
12519;SDS011;6325;49.540;8.364;2022-07-12T08:36:05;0.60;;;0.60;;
12519;SDS011;6325;49.540;8.364;2022-07-12T08:38:33;0.70;;;0.60;;
12519;SDS011;6325;49.540;8.364;2022-07-12T08:41:01;0.57;;;0.57;;
12519;SDS011;6325;49.540;8.364;2022-07-12T08:43:28;0.60;;;0.57;;
12519;SDS011;6325;49.540;8.364;2022-07-12T08:46:01;0.40;;;0.40;;
12519;SDS011;6325;49.540;8.364;2022-07-12T08:48:28;0.60;;;0.60;;
12519;SDS011;6325;49.540;8.364;2022-07-12T08:50:59;0.80;;;0.60;;
12519;SDS011;6325;49.540;8.364;2022-07-12T08:53:27;0.60;;;0.60;;
12519;SDS011;6325;49.540;8.364;2022-07-12T08:55:54;0.60;;;0.60;;
12519;SDS011;6325;49.540;8.364;2022-07-12T08:58:21;0.70;;;0.70;;
12519;SDS011;6325;49.540;8.364;2022-07-12T09:00:48;0.70;;;0.70;;
12519;SDS011;6325;49.540;8.364;2022-07-12T09:03:16;0.60;;;0.60;;
12519;SDS011;6325;49.540;8.364;2022-07-12T09:05:48;0.50;;;0.50;;
12519;SDS011;6325;49.540;8.364;2022-07-12T09:08:17;0.52;;;0.52;;
12519;SDS011;6325;49.540;8.364;2022-07-12T09:10:54;0.60;;;0.60;;
12519;SDS011;6325;49.540;8.364;2022-07-12T09:13:45;0.50;;;0.50;;
12519;SDS011;6325;49.540;8.364;2022-07-12T09:16:15;0.70;;;0.70;;
12519;SDS011;6325;49.540;8.364;2022-07-12T09:18:45;0.70;;;0.70;;
12519;SDS011;6325;49.540;8.364;2022-07-12T09:21:25;0.70;;;0.70;;
12519;SDS011;6325;49.540;8.364;2022-07-12T09:23:53;0.53;;;0.53;;
12519;SDS011;6325;49.540;8.364;2022-07-12T09:26:21;0.70;;;0.50;;
12519;SDS011;6325;49.540;8.364;2022-07-12T09:28:49;0.60;;;0.50;;
12519;SDS011;6325;49.540;8.364;2022-07-12T09:31:18;0.60;;;0.60;;
12519;SDS011;6325;49.540;8.364;2022-07-12T09:34:01;0.70;;;0.70;;
12519;SDS011;6325;49.540;8.364;2022-07-12T09:39:31;0.68;;;0.68;;
12519;SDS011;6325;49.540;8.364;2022-07-12T09:41:59;0.90;;;0.80;;
12519;SDS011;6325;49.540;8.364;2022-07-12T09:44:26;0.60;;;0.60;;
12519;SDS011;6325;49.540;8.364;2022-07-12T09:46:57;0.60;;;0.60;;
12519;SDS011;6325;49.540;8.364;2022-07-12T09:49:27;0.70;;;0.70;;
12519;SDS011;6325;49.540;8.364;2022-07-12T09:51:54;0.70;;;0.70;;
12519;SDS011;6325;49.540;8.364;2022-07-12T09:54:24;0.65;;;0.65;;
12519;SDS011;6325;49.540;8.364;2022-07-12T09:56:52;0.63;;;0.63;;
12519;SDS011;6325;49.540;8.364;2022-07-12T09:59:22;0.50;;;0.50;;
12519;SDS011;6325;49.540;8.364;2022-07-12T10:01:53;0.80;;;0.68;;
12519;SDS011;6325;49.540;8.364;2022-07-12T10:04:24;0.70;;;0.70;;
12519;SDS011;6325;49.540;8.364;2022-07-12T10:06:56;0.88;;;0.80;;
12519;SDS011;6325;49.540;8.364;2022-07-12T10:09:24;1.77;;;0.70;;
12519;SDS011;6325;49.540;8.364;2022-07-12T10:11:51;0.60;;;0.60;;
12519;SDS011;6325;49.540;8.364;2022-07-12T10:14:19;0.60;;;0.60;;
12519;SDS011;6325;49.540;8.364;2022-07-12T10:16:46;0.55;;;0.50;;
12519;SDS011;6325;49.540;8.364;2022-07-12T10:19:23;0.60;;;0.60;;
12519;SDS011;6325;49.540;8.364;2022-07-12T10:21:53;0.50;;;0.50;;
12519;SDS011;6325;49.540;8.364;2022-07-12T10:27:30;1.27;;;0.60;;
12519;SDS011;6325;49.540;8.364;2022-07-12T10:30:17;0.60;;;0.60;;
12519;SDS011;6325;49.540;8.364;2022-07-12T10:32:46;0.55;;;0.55;;
12519;SDS011;6325;49.540;8.364;2022-07-12T10:35:18;0.80;;;0.50;;
12519;SDS011;6325;49.540;8.364;2022-07-12T10:40:44;0.60;;;0.50;;
12519;SDS011;6325;49.540;8.364;2022-07-12T10:43:13;0.60;;;0.60;;
12519;SDS011;6325;49.540;8.364;2022-07-12T10:45:42;0.95;;;0.70;;
12519;SDS011;6325;49.540;8.364;2022-07-12T10:48:18;0.57;;;0.57;;
12519;SDS011;6325;49.540;8.364;2022-07-12T10:50:55;0.60;;;0.60;;
12519;SDS011;6325;49.540;8.364;2022-07-12T10:53:28;0.50;;;0.50;;
12519;SDS011;6325;49.540;8.364;2022-07-12T10:56:11;0.60;;;0.60;;
12519;SDS011;6325;49.540;8.364;2022-07-12T10:58:44;0.52;;;0.52;;
12519;SDS011;6325;49.540;8.364;2022-07-12T11:01:13;0.63;;;0.63;;
12519;SDS011;6325;49.540;8.364;2022-07-12T11:03:42;0.50;;;0.50;;
12519;SDS011;6325;49.540;8.364;2022-07-12T11:06:10;0.60;;;0.60;;
12519;SDS011;6325;49.540;8.364;2022-07-12T11:08:49;0.50;;;0.50;;
12519;SDS011;6325;49.540;8.364;2022-07-12T11:11:28;0.50;;;0.50;;
12519;SDS011;6325;49.540;8.364;2022-07-12T11:13:57;0.60;;;0.60;;
12519;SDS011;6325;49.540;8.364;2022-07-12T11:16:25;0.47;;;0.47;;
12519;SDS011;6325;49.540;8.364;2022-07-12T11:18:53;0.50;;;0.50;;
12519;SDS011;6325;49.540;8.364;2022-07-12T11:21:21;0.47;;;0.47;;
12519;SDS011;6325;49.540;8.364;2022-07-12T11:23:50;0.55;;;0.55;;
12519;SDS011;6325;49.540;8.364;2022-07-12T11:26:17;0.60;;;0.60;;
12519;SDS011;6325;49.540;8.364;2022-07-12T11:28:45;0.50;;;0.50;;
12519;SDS011;6325;49.540;8.364;2022-07-12T11:31:13;0.50;;;0.50;;
12519;SDS011;6325;49.540;8.364;2022-07-12T11:33:41;0.50;;;0.50;;
12519;SDS011;6325;49.540;8.364;2022-07-12T11:36:09;0.60;;;0.60;;
12519;SDS011;6325;49.540;8.364;2022-07-12T11:38:38;0.50;;;0.50;;
12519;SDS011;6325;49.540;8.364;2022-07-12T11:41:07;0.50;;;0.50;;
12519;SDS011;6325;49.540;8.364;2022-07-12T11:43:36;0.95;;;0.60;;
12519;SDS011;6325;49.540;8.364;2022-07-12T11:46:04;0.90;;;0.60;;
12519;SDS011;6325;49.540;8.364;2022-07-12T11:48:32;0.60;;;0.50;;
12519;SDS011;6325;49.540;8.364;2022-07-12T11:51:00;0.70;;;0.60;;
12519;SDS011;6325;49.540;8.364;2022-07-12T11:53:29;0.50;;;0.50;;
12519;SDS011;6325;49.540;8.364;2022-07-12T11:55:58;0.50;;;0.50;;
12519;SDS011;6325;49.540;8.364;2022-07-12T11:58:28;0.55;;;0.55;;
12519;SDS011;6325;49.540;8.364;2022-07-12T12:00:57;1.10;;;0.60;;
12519;SDS011;6325;49.540;8.364;2022-07-12T12:03:24;0.80;;;0.50;;
12519;SDS011;6325;49.540;8.364;2022-07-12T12:05:51;0.60;;;0.60;;
12519;SDS011;6325;49.540;8.364;2022-07-12T12:08:20;0.50;;;0.50;;
12519;SDS011;6325;49.540;8.364;2022-07-12T12:10:55;0.57;;;0.55;;
12519;SDS011;6325;49.540;8.364;2022-07-12T12:13:23;0.40;;;0.40;;
12519;SDS011;6325;49.540;8.364;2022-07-12T12:15:53;0.60;;;0.60;;
12519;SDS011;6325;49.540;8.364;2022-07-12T12:18:29;0.50;;;0.50;;
12519;SDS011;6325;49.540;8.364;2022-07-12T12:20:57;0.60;;;0.60;;
12519;SDS011;6325;49.540;8.364;2022-07-12T12:23:26;0.60;;;0.60;;
12519;SDS011;6325;49.540;8.364;2022-07-12T12:25:53;0.70;;;0.52;;
12519;SDS011;6325;49.540;8.364;2022-07-12T12:28:44;0.50;;;0.50;;
12519;SDS011;6325;49.540;8.364;2022-07-12T12:31:15;0.60;;;0.60;;
12519;SDS011;6325;49.540;8.364;2022-07-12T12:33:43;0.73;;;0.60;;
12519;SDS011;6325;49.540;8.364;2022-07-12T12:36:14;0.50;;;0.50;;
12519;SDS011;6325;49.540;8.364;2022-07-12T12:38:43;0.50;;;0.50;;
12519;SDS011;6325;49.540;8.364;2022-07-12T12:41:11;0.60;;;0.60;;
12519;SDS011;6325;49.540;8.364;2022-07-12T12:43:39;0.50;;;0.50;;
12519;SDS011;6325;49.540;8.364;2022-07-12T12:46:06;0.50;;;0.50;;
12519;SDS011;6325;49.540;8.364;2022-07-12T12:48:34;1.25;;;0.52;;
12519;SDS011;6325;49.540;8.364;2022-07-12T12:51:02;0.60;;;0.60;;
12519;SDS011;6325;49.540;8.364;2022-07-12T12:53:30;0.52;;;0.52;;
12519;SDS011;6325;49.540;8.364;2022-07-12T12:55:57;0.43;;;0.43;;
12519;SDS011;6325;49.540;8.364;2022-07-12T12:58:24;0.47;;;0.47;;
12519;SDS011;6325;49.540;8.364;2022-07-12T13:00:53;0.60;;;0.60;;
12519;SDS011;6325;49.540;8.364;2022-07-12T13:03:21;0.50;;;0.50;;
12519;SDS011;6325;49.540;8.364;2022-07-12T13:05:51;1.48;;;0.70;;
12519;SDS011;6325;49.540;8.364;2022-07-12T13:08:18;0.60;;;0.60;;
12519;SDS011;6325;49.540;8.364;2022-07-12T13:10:46;0.55;;;0.55;;
12519;SDS011;6325;49.540;8.364;2022-07-12T13:13:34;0.50;;;0.50;;
12519;SDS011;6325;49.540;8.364;2022-07-12T13:16:02;0.50;;;0.50;;
12519;SDS011;6325;49.540;8.364;2022-07-12T13:18:29;1.10;;;0.50;;
12519;SDS011;6325;49.540;8.364;2022-07-12T13:20:57;1.00;;;0.40;;
12519;SDS011;6325;49.540;8.364;2022-07-12T13:23:24;0.70;;;0.50;;
12519;SDS011;6325;49.540;8.364;2022-07-12T13:25:50;0.50;;;0.50;;
12519;SDS011;6325;49.540;8.364;2022-07-12T13:28:17;0.50;;;0.50;;
12519;SDS011;6325;49.540;8.364;2022-07-12T13:30:44;0.50;;;0.50;;
12519;SDS011;6325;49.540;8.364;2022-07-12T13:33:11;0.47;;;0.47;;
12519;SDS011;6325;49.540;8.364;2022-07-12T13:35:38;0.40;;;0.40;;
12519;SDS011;6325;49.540;8.364;2022-07-12T13:38:08;0.50;;;0.50;;
12519;SDS011;6325;49.540;8.364;2022-07-12T13:40:35;0.50;;;0.50;;
12519;SDS011;6325;49.540;8.364;2022-07-12T13:43:01;0.60;;;0.60;;
12519;SDS011;6325;49.540;8.364;2022-07-12T13:45:29;0.70;;;0.50;;
12519;SDS011;6325;49.540;8.364;2022-07-12T13:47:56;0.50;;;0.50;;
12519;SDS011;6325;49.540;8.364;2022-07-12T13:50:22;0.50;;;0.50;;
12519;SDS011;6325;49.540;8.364;2022-07-12T13:52:49;0.50;;;0.50;;
12519;SDS011;6325;49.540;8.364;2022-07-12T13:55:17;0.73;;;0.52;;
12519;SDS011;6325;49.540;8.364;2022-07-12T13:57:44;0.95;;;0.50;;
12519;SDS011;6325;49.540;8.364;2022-07-12T14:00:12;0.77;;;0.50;;
12519;SDS011;6325;49.540;8.364;2022-07-12T14:02:42;0.43;;;0.43;;
12519;SDS011;6325;49.540;8.364;2022-07-12T14:05:10;0.50;;;0.50;;
12519;SDS011;6325;49.540;8.364;2022-07-12T14:07:38;0.77;;;0.60;;
12519;SDS011;6325;49.540;8.364;2022-07-12T14:10:06;0.57;;;0.50;;
12519;SDS011;6325;49.540;8.364;2022-07-12T14:12:36;0.40;;;0.40;;
12519;SDS011;6325;49.540;8.364;2022-07-12T14:15:03;0.57;;;0.57;;
12519;SDS011;6325;49.540;8.364;2022-07-12T14:17:44;0.50;;;0.50;;
12519;SDS011;6325;49.540;8.364;2022-07-12T14:20:14;0.50;;;0.50;;
12519;SDS011;6325;49.540;8.364;2022-07-12T14:22:43;0.60;;;0.60;;
12519;SDS011;6325;49.540;8.364;2022-07-12T14:25:10;0.70;;;0.52;;
12519;SDS011;6325;49.540;8.364;2022-07-12T14:27:39;0.68;;;0.68;;
12519;SDS011;6325;49.540;8.364;2022-07-12T14:30:08;1.00;;;0.50;;
12519;SDS011;6325;49.540;8.364;2022-07-12T14:32:37;0.95;;;0.40;;
12519;SDS011;6325;49.540;8.364;2022-07-12T14:35:04;0.63;;;0.63;;
12519;SDS011;6325;49.540;8.364;2022-07-12T14:37:32;0.50;;;0.50;;
12519;SDS011;6325;49.540;8.364;2022-07-12T14:39:59;0.52;;;0.52;;
12519;SDS011;6325;49.540;8.364;2022-07-12T14:42:25;0.57;;;0.50;;
12519;SDS011;6325;49.540;8.364;2022-07-12T14:44:54;0.50;;;0.50;;
12519;SDS011;6325;49.540;8.364;2022-07-12T14:47:20;0.50;;;0.50;;
12519;SDS011;6325;49.540;8.364;2022-07-12T14:49:47;0.60;;;0.60;;
12519;SDS011;6325;49.540;8.364;2022-07-12T14:52:14;0.50;;;0.50;;
12519;SDS011;6325;49.540;8.364;2022-07-12T14:54:42;0.52;;;0.52;;
12519;SDS011;6325;49.540;8.364;2022-07-12T14:57:09;0.97;;;0.57;;
12519;SDS011;6325;49.540;8.364;2022-07-12T14:59:36;0.40;;;0.40;;
12519;SDS011;6325;49.540;8.364;2022-07-12T15:02:04;0.40;;;0.40;;
12519;SDS011;6325;49.540;8.364;2022-07-12T15:04:31;0.50;;;0.50;;
12519;SDS011;6325;49.540;8.364;2022-07-12T15:06:58;1.00;;;0.57;;
12519;SDS011;6325;49.540;8.364;2022-07-12T15:09:25;0.50;;;0.50;;
12519;SDS011;6325;49.540;8.364;2022-07-12T15:11:52;0.50;;;0.50;;
12519;SDS011;6325;49.540;8.364;2022-07-12T15:14:19;0.40;;;0.40;;
12519;SDS011;6325;49.540;8.364;2022-07-12T15:16:45;0.50;;;0.50;;